Time;durP1;ratioP1;P1;durP2;ratioP2;P2;SDS_P1;SDS_P2;PMS_P1;PMS_P2;Temp;Humidity;BMP_temperature;BMP_pressure;BME280_temperature;BME280_humidity;BME280_pressure;Samples;Min_cycle;Max_cycle;Signal;HPM_P1;HPM_P2
2023/06/14 17:20:10;;;;;;;0.50;0.50;;;31.30;28.70;;;;;;5095547;22;1353238;-57
2023/06/14 17:22:40;;;;;;;0.83;0.83;;;31.30;28.70;;;;;;5058668;27;88599;-57
2023/06/14 17:25:09;;;;;;;0.80;0.80;;;31.20;28.70;;;;;;5058413;27;90039;-57
2023/06/14 17:27:37;;;;;;;0.87;0.60;;;31.20;28.70;;;;;;5060001;27;88929;-56
2023/06/14 17:30:07;;;;;;;0.60;0.60;;;31.30;28.80;;;;;;5057068;27;87436;-56
2023/06/14 17:32:35;;;;;;;0.80;0.70;;;31.30;28.80;;;;;;5058107;27;88741;-56
2023/06/14 17:35:04;;;;;;;0.93;0.60;;;31.30;28.80;;;;;;5058872;27;88922;-56
2023/06/14 17:37:34;;;;;;;1.27;0.70;;;31.40;28.80;;;;;;5052877;27;87833;-56
2023/06/14 17:40:03;;;;;;;0.63;0.57;;;31.50;28.90;;;;;;5037864;28;87646;-55
2023/06/14 17:42:31;;;;;;;1.07;0.50;;;31.50;28.90;;;;;;5043823;27;88454;-56
2023/06/14 17:45:00;;;;;;;0.83;0.53;;;31.60;28.90;;;;;;5058549;27;89180;-57
2023/06/14 17:47:28;;;;;;;0.50;0.50;;;31.60;28.90;;;;;;5055560;27;88874;-56
2023/06/14 17:50:05;;;;;;;0.50;0.43;;;31.60;28.80;;;;;;5039930;28;87888;-57
2023/06/14 17:52:35;;;;;;;0.53;0.53;;;31.50;28.70;;;;;;5052059;27;89472;-57
2023/06/14 17:55:03;;;;;;;0.50;0.50;;;31.40;28.70;;;;;;5060216;27;87978;-57
2023/06/14 17:57:31;;;;;;;0.50;0.50;;;31.30;28.60;;;;;;5060678;27;89214;-57
2023/06/14 17:59:59;;;;;;;5.73;0.63;;;31.20;28.60;;;;;;5060606;27;87522;-56
2023/06/14 18:02:27;;;;;;;0.40;0.40;;;31.10;28.60;;;;;;5043923;27;89083;-57
2023/06/14 18:04:55;;;;;;;1.20;0.50;;;31.10;28.60;;;;;;5050878;27;88109;-57
2023/06/14 18:07:23;;;;;;;1.90;0.90;;;31.10;28.70;;;;;;5057699;27;87729;-57
2023/06/14 18:09:53;;;;;;;1.00;0.70;;;31.10;28.70;;;;;;5057866;27;87711;-57
2023/06/14 18:12:21;;;;;;;0.70;0.50;;;31.10;28.70;;;;;;5057086;27;88532;-57
2023/06/14 18:14:49;;;;;;;0.80;0.63;;;31.00;28.60;;;;;;5054538;27;90224;-57
2023/06/14 18:17:18;;;;;;;0.50;0.50;;;31.00;28.60;;;;;;5053666;27;88883;-57
2023/06/14 18:19:47;;;;;;;0.70;0.63;;;30.90;28.60;;;;;;5056689;27;87730;-57
2023/06/14 18:22:15;;;;;;;0.87;0.60;;;30.90;28.60;;;;;;5056942;27;88581;-56
2023/06/14 18:24:43;;;;;;;0.93;0.57;;;30.90;28.70;;;;;;5056949;27;87706;-57
2023/06/14 18:27:12;;;;;;;1.13;0.60;;;30.80;28.60;;;;;;5058082;27;87940;-57
2023/06/14 18:29:40;;;;;;;0.50;0.50;;;30.90;28.70;;;;;;5059935;27;87633;-57
2023/06/14 18:32:09;;;;;;;0.40;0.40;;;30.80;28.60;;;;;;5061013;27;88761;-57
2023/06/14 18:34:37;;;;;;;0.70;0.63;;;30.80;28.60;;;;;;5060476;27;88430;-58
2023/06/14 18:37:06;;;;;;;0.77;0.77;;;30.80;28.70;;;;;;5060358;27;87759;-57
2023/06/14 18:39:34;;;;;;;1.73;0.60;;;30.70;28.70;;;;;;5059567;27;88949;-57
2023/06/14 18:42:02;;;;;;;2.03;0.50;;;30.70;28.60;;;;;;5074975;27;88743;-56
2023/06/14 18:44:31;;;;;;;0.80;0.60;;;30.70;28.70;;;;;;5079983;27;88016;-57
2023/06/14 18:47:00;;;;;;;3.43;0.70;;;30.70;28.70;;;;;;5081094;27;88994;-57
2023/06/14 18:49:28;;;;;;;0.70;0.70;;;30.60;28.70;;;;;;5075356;27;87556;-57
2023/06/14 18:51:56;;;;;;;0.83;0.50;;;30.60;28.70;;;;;;5069859;27;88716;-56
2023/06/14 18:54:25;;;;;;;0.63;0.60;;;30.50;28.60;;;;;;5057529;27;87642;-57
2023/06/14 18:56:54;;;;;;;0.57;0.57;;;30.60;28.70;;;;;;5059276;27;87463;-57
2023/06/14 18:59:22;;;;;;;4.03;0.83;;;30.70;28.80;;;;;;5060150;27;87637;-57
2023/06/14 19:01:51;;;;;;;1.30;0.70;;;30.70;28.70;;;;;;5059939;27;90165;-57
2023/06/14 19:04:19;;;;;;;0.67;0.67;;;30.70;28.70;;;;;;5058912;27;89102;-57
2023/06/14 19:06:48;;;;;;;0.50;0.50;;;30.70;28.70;;;;;;5059338;27;89058;-57
2023/06/14 19:09:18;;;;;;;0.80;0.80;;;30.80;28.70;;;;;;5060735;27;87650;-57
2023/06/14 19:11:47;;;;;;;0.97;0.87;;;30.80;28.70;;;;;;5059308;27;89612;-56
2023/06/14 19:14:15;;;;;;;0.53;0.53;;;30.80;28.70;;;;;;5059774;27;88121;-57
2023/06/14 19:16:43;;;;;;;1.37;0.70;;;30.80;28.80;;;;;;5055339;27;88625;-59
2023/06/14 19:19:13;;;;;;;0.90;0.70;;;30.80;28.80;;;;;;5059732;27;87956;-59
2023/06/14 19:21:41;;;;;;;0.70;0.70;;;30.80;28.80;;;;;;5059187;27;88630;-59
2023/06/14 19:24:09;;;;;;;0.73;0.73;;;30.80;28.80;;;;;;5059747;27;89420;-59
2023/06/14 19:26:37;;;;;;;1.67;0.80;;;30.80;28.80;;;;;;5055811;27;88408;-59
2023/06/14 19:29:06;;;;;;;2.97;0.90;;;30.80;28.80;;;;;;5059605;27;88519;-60
2023/06/14 19:31:35;;;;;;;0.57;0.43;;;30.70;28.80;;;;;;5060043;27;89710;-60
2023/06/14 19:34:03;;;;;;;0.63;0.50;;;30.70;28.80;;;;;;5058943;27;88033;-59
2023/06/14 19:36:32;;;;;;;0.40;0.40;;;30.70;28.80;;;;;;5059377;27;87499;-59
2023/06/14 19:39:00;;;;;;;0.87;0.60;;;30.70;29.40;;;;;;5058814;27;87876;-59
2023/06/14 19:41:30;;;;;;;0.70;0.70;;;30.70;28.90;;;;;;5048312;27;88608;-60
2023/06/14 19:43:58;;;;;;;0.33;0.33;;;30.70;28.90;;;;;;5059161;27;88080;-59
2023/06/14 19:46:26;;;;;;;0.97;0.53;;;30.70;28.90;;;;;;5059816;27;88276;-60
2023/06/14 19:48:55;;;;;;;2.47;0.80;;;30.60;28.90;;;;;;5059068;27;87918;-59
2023/06/14 19:51:23;;;;;;;0.50;0.50;;;30.60;29.00;;;;;;5058864;27;88194;-59
2023/06/14 19:53:52;;;;;;;0.77;0.53;;;30.60;29.00;;;;;;5058472;27;89841;-60
2023/06/14 19:56:20;;;;;;;0.53;0.53;;;30.60;29.10;;;;;;5058455;27;89994;-59
2023/06/14 19:58:48;;;;;;;0.60;0.60;;;30.60;29.10;;;;;;5058875;27;87726;-59
2023/06/14 20:01:17;;;;;;;0.53;0.53;;;30.60;29.10;;;;;;5069985;27;88539;-59
2023/06/14 20:03:46;;;;;;;0.67;0.50;;;30.60;29.10;;;;;;5048807;27;87967;-59
2023/06/14 20:06:14;;;;;;;2.53;0.90;;;30.60;29.10;;;;;;5057446;27;87743;-60
2023/06/14 20:08:42;;;;;;;1.27;0.87;;;30.60;29.20;;;;;;5059054;27;88286;-59
2023/06/14 20:11:12;;;;;;;0.70;0.70;;;30.60;29.20;;;;;;5058974;27;88835;-59
2023/06/14 20:13:41;;;;;;;1.00;0.90;;;30.50;29.20;;;;;;5058601;27;89091;-59
2023/06/14 20:16:09;;;;;;;0.83;0.83;;;30.50;29.20;;;;;;5058282;27;87872;-59
2023/06/14 20:18:38;;;;;;;0.73;0.70;;;30.50;29.20;;;;;;5058748;27;88604;-59
2023/06/14 20:21:06;;;;;;;0.80;0.70;;;30.50;29.30;;;;;;5040957;27;89624;-59
2023/06/14 20:23:34;;;;;;;1.10;0.90;;;30.50;29.30;;;;;;5058571;27;88691;-60
2023/06/14 20:26:02;;;;;;;3.23;0.70;;;30.50;29.30;;;;;;5053715;27;89005;-60
2023/06/14 20:28:32;;;;;;;1.50;0.87;;;30.50;29.40;;;;;;5058285;27;87667;-59
2023/06/14 20:31:00;;;;;;;1.83;0.83;;;30.50;29.40;;;;;;5057328;27;89671;-59
2023/06/14 20:33:29;;;;;;;3.83;0.90;;;30.50;29.40;;;;;;5058405;27;87997;-59
2023/06/14 20:35:57;;;;;;;0.77;0.77;;;30.50;29.40;;;;;;5057974;27;88198;-59
2023/06/14 20:38:25;;;;;;;1.53;1.00;;;30.40;29.40;;;;;;5057761;27;87464;-57
2023/06/14 20:40:56;;;;;;;2.27;0.90;;;30.40;29.40;;;;;;5064034;27;88612;-57
2023/06/14 20:43:26;;;;;;;1.13;0.60;;;30.20;29.50;;;;;;5058561;27;90724;-56
2023/06/14 20:45:56;;;;;;;1.63;0.67;;;30.00;29.50;;;;;;5058781;27;89747;-55
2023/06/14 20:48:25;;;;;;;1.07;0.90;;;29.90;29.60;;;;;;5058952;27;88091;-63
2023/06/14 20:50:54;;;;;;;2.07;1.53;;;29.80;29.60;;;;;;5058710;27;89017;-62
2023/06/14 20:53:22;;;;;;;0.97;0.80;;;29.70;29.70;;;;;;5058319;27;87968;-59
2023/06/14 20:55:50;;;;;;;0.70;0.70;;;29.70;29.80;;;;;;5058027;27;87716;-60
2023/06/14 20:58:19;;;;;;;1.10;1.00;;;29.80;29.80;;;;;;5057898;27;87443;-60
2023/06/14 21:00:49;;;;;;;2.43;0.90;;;29.80;29.80;;;;;;5048571;27;88677;-61
2023/06/14 21:03:18;;;;;;;1.73;1.03;;;29.90;29.90;;;;;;5048821;27;88206;-60
2023/06/14 21:05:46;;;;;;;0.83;0.70;;;30.00;30.00;;;;;;5041654;27;88170;-62
2023/06/14 21:08:14;;;;;;;1.17;1.03;;;30.00;30.00;;;;;;5041455;27;87911;-60
2023/06/14 21:10:43;;;;;;;1.67;1.00;;;30.00;30.00;;;;;;5038265;27;89970;-60
2023/06/14 21:13:11;;;;;;;2.43;0.80;;;30.00;30.00;;;;;;5037750;27;87958;-60
2023/06/14 21:15:39;;;;;;;1.33;1.00;;;30.00;30.00;;;;;;5037642;27;88195;-61
2023/06/14 21:18:09;;;;;;;2.30;1.33;;;30.10;30.10;;;;;;5051274;27;87668;-62
2023/06/14 21:20:39;;;;;;;1.13;0.97;;;30.10;30.10;;;;;;5047798;27;90707;-62
2023/06/14 21:23:07;;;;;;;1.10;1.00;;;30.10;30.10;;;;;;5039673;27;88963;-65
2023/06/14 21:25:35;;;;;;;1.10;0.90;;;30.10;30.20;;;;;;5028595;27;88485;-59
2023/06/14 21:28:03;;;;;;;2.77;1.50;;;30.10;30.20;;;;;;5036488;27;87780;-59
2023/06/14 21:30:35;;;;;;;2.20;1.10;;;30.10;30.30;;;;;;5036973;27;88635;-59
2023/06/14 21:33:03;;;;;;;2.37;1.70;;;30.20;30.50;;;;;;5039735;27;89052;-59
2023/06/14 21:35:32;;;;;;;1.40;1.20;;;30.20;30.50;;;;;;5048802;27;89010;-59
2023/06/14 21:38:01;;;;;;;1.60;1.30;;;30.30;30.50;;;;;;5036401;27;87542;-59
2023/06/14 21:40:29;;;;;;;1.27;1.17;;;30.30;30.50;;;;;;5041504;27;89696;-59
2023/06/14 21:42:57;;;;;;;1.50;1.30;;;30.30;30.50;;;;;;5028242;28;87600;-59
2023/06/14 21:45:25;;;;;;;1.73;1.10;;;30.30;30.60;;;;;;5017272;28;89087;-59
2023/06/14 21:47:53;;;;;;;1.73;1.57;;;30.30;30.60;;;;;;5017517;28;87688;-59
2023/06/14 21:50:23;;;;;;;2.80;1.33;;;30.40;30.70;;;;;;5017119;28;88547;-59
2023/06/14 21:52:52;;;;;;;2.93;1.63;;;30.40;30.80;;;;;;5017233;28;88111;-59
2023/06/14 21:55:23;;;;;;;1.47;1.30;;;30.40;30.90;;;;;;5017612;28;87534;-59
2023/06/14 21:57:51;;;;;;;2.03;1.57;;;30.40;30.90;;;;;;5021585;28;87904;-59
2023/06/14 22:00:21;;;;;;;1.60;1.33;;;30.40;31.00;;;;;;5040243;27;88686;-60
2023/06/14 22:02:49;;;;;;;1.90;1.77;;;30.40;31.00;;;;;;5054612;27;87363;-59
2023/06/14 22:05:17;;;;;;;2.40;1.33;;;30.50;31.10;;;;;;5052186;27;88916;-59
2023/06/14 22:07:48;;;;;;;1.87;1.67;;;30.50;31.20;;;;;;5064417;27;87449;-60
2023/06/14 22:10:19;;;;;;;2.90;1.80;;;30.50;31.20;;;;;;5063893;27;88218;-59
2023/06/14 22:12:51;;;;;;;2.00;1.60;;;30.50;31.20;;;;;;5064348;27;88962;-59
2023/06/14 22:15:19;;;;;;;2.13;1.73;;;30.40;31.10;;;;;;5046293;27;88901;-59
2023/06/14 22:17:49;;;;;;;1.67;1.40;;;30.40;31.10;;;;;;5023071;28;87257;-59
2023/06/14 22:20:17;;;;;;;4.93;2.33;;;30.40;31.20;;;;;;5055277;27;88587;-59
2023/06/14 22:22:47;;;;;;;2.20;2.00;;;30.40;31.20;;;;;;5082903;27;89800;-59
2023/06/14 22:25:15;;;;;;;2.37;1.93;;;30.40;31.30;;;;;;5083486;27;88741;-59
2023/06/14 22:27:46;;;;;;;2.30;1.90;;;30.40;31.20;;;;;;5084544;27;87486;-59
2023/06/14 22:30:16;;;;;;;2.10;1.57;;;30.40;31.30;;;;;;5084484;27;88772;-59
2023/06/14 22:32:45;;;;;;;5.13;1.97;;;30.40;31.40;;;;;;5071784;27;89883;-59
2023/06/14 22:35:14;;;;;;;3.27;1.50;;;30.40;31.40;;;;;;5062288;27;88046;-59
2023/06/14 22:37:42;;;;;;;4.70;1.60;;;30.50;31.50;;;;;;5063668;27;87578;-59
2023/06/14 22:40:11;;;;;;;1.93;1.70;;;30.40;31.40;;;;;;5063488;27;87538;-59
2023/06/14 22:42:41;;;;;;;1.40;1.30;;;30.50;31.50;;;;;;5061831;27;88023;-59
2023/06/14 22:45:10;;;;;;;2.00;1.80;;;30.40;31.40;;;;;;5043601;28;88876;-59
2023/06/14 22:47:40;;;;;;;1.40;1.20;;;30.40;31.50;;;;;;5043169;28;87850;-59
2023/06/14 22:50:10;;;;;;;1.53;1.27;;;30.40;31.50;;;;;;5073274;27;88859;-59
2023/06/14 22:52:39;;;;;;;1.40;1.20;;;30.40;31.60;;;;;;5060518;27;88004;-59
2023/06/14 22:55:09;;;;;;;1.37;1.27;;;30.50;31.70;;;;;;5043442;28;87891;-59
2023/06/14 22:57:37;;;;;;;1.23;1.13;;;30.50;31.70;;;;;;5042893;28;87621;-59
2023/06/14 23:00:11;;;;;;;2.20;1.13;;;30.50;31.80;;;;;;5041939;28;88859;-59
2023/06/14 23:02:41;;;;;;;1.23;1.10;;;30.50;31.90;;;;;;5042020;28;89185;-59
2023/06/14 23:05:11;;;;;;;1.47;1.20;;;30.50;31.80;;;;;;5042375;28;87731;-59
2023/06/14 23:07:41;;;;;;;2.13;1.40;;;30.50;31.80;;;;;;5081940;27;87441;-59
2023/06/14 23:10:10;;;;;;;1.80;1.00;;;30.50;32.50;;;;;;5083524;27;88623;-59
2023/06/14 23:12:40;;;;;;;1.53;1.20;;;30.40;31.80;;;;;;5081770;27;90150;-59
2023/06/14 23:15:10;;;;;;;2.40;1.27;;;30.50;31.90;;;;;;5083223;27;89998;-59
2023/06/14 23:17:39;;;;;;;1.20;1.10;;;30.40;31.90;;;;;;5079818;27;87665;-59
2023/06/14 23:20:12;;;;;;;1.90;0.90;;;30.40;32.00;;;;;;5062572;27;89812;-59
2023/06/14 23:22:41;;;;;;;1.30;1.20;;;30.40;32.00;;;;;;5064992;27;88016;-58
2023/06/14 23:25:13;;;;;;;1.60;1.10;;;30.40;32.00;;;;;;5082950;27;87711;-59
2023/06/14 23:27:43;;;;;;;0.80;0.80;;;30.40;32.10;;;;;;5072119;27;87550;-59
2023/06/14 23:30:13;;;;;;;0.90;0.90;;;30.40;32.00;;;;;;5063225;27;88235;-59
2023/06/14 23:32:41;;;;;;;2.67;1.13;;;30.40;32.10;;;;;;5062651;27;89061;-59
2023/06/14 23:35:13;;;;;;;0.87;0.80;;;30.40;32.10;;;;;;5044000;27;87475;-59
2023/06/14 23:37:41;;;;;;;0.70;0.70;;;30.30;32.00;;;;;;5041858;28;87837;-59
2023/06/14 23:40:10;;;;;;;0.80;0.80;;;30.30;32.00;;;;;;5041309;28;88680;-59
2023/06/14 23:42:41;;;;;;;1.10;1.00;;;30.30;32.00;;;;;;5042635;28;89054;-59
2023/06/14 23:45:11;;;;;;;0.70;0.70;;;30.30;32.10;;;;;;5042687;28;87700;-59
2023/06/14 23:47:39;;;;;;;2.23;1.00;;;30.30;32.20;;;;;;5042484;28;87623;-59
2023/06/14 23:50:08;;;;;;;0.80;0.80;;;30.20;32.10;;;;;;5041852;28;87236;-59
2023/06/14 23:52:39;;;;;;;4.30;0.90;;;30.20;32.10;;;;;;5041298;28;88007;-59
2023/06/14 23:55:19;;;;;;;1.00;0.90;;;30.20;32.80;;;;;;5041603;28;88743;-59
2023/06/14 23:57:49;;;;;;;1.53;0.90;;;30.20;32.10;;;;;;5042272;28;87350;-59
